< < Back
Terminal Aerodrome Forecast


Current Version              Previous Versions:   1  2  3  4  5  6  7  8  9  

Terminal Aerodrome Forecast

325
FTAK31 PAJN 010500
TAFAGS
TAF
PAGS 010525Z 0106/0206 VRB05KT P6SM -RA SCT005 BKN035 OVC050
      TEMPO 0106/0109 BKN003 OVC050
     FM011000 VRB02KT 6SM -SHRA SCT007 BKN015 OVC030
     FM011400 13003KT 6SM -SHRA BR BKN007 OVC015
     FM012100 21004KT P6SM VCSH FEW015 BKN040 OVC060
     FM020000 24005KT P6SM FEW015 SCT040 BKN060
      AMD NOT SKED=

Latest METAR

825
SAUS70 KWBC 010800 RRW
MTRAGS
METAR KAGS 010753Z AUTO 13003KT 2SM BR CLR 22/21 A3008 RMK AO2 SLP182
T02170211


USA.gov is the U.S. government's official web portal to all federal, state and local government web resources and services.